Snel-info
Kleurcode:
Geel
Er mag gevlogen worden.
Voorzichtigheid geboden!
Laatste update: 09/07/2017
Kleurcode informatie

Grasmaaien:

Geen maaibeurten gepland.

Volgende vliegdagen:

  • di 15 augustus : OLV Hemelvaart
  • wo 1 november : Allerheiligen
  • wo 15 november : Dag vd Dynastie
Alle extra vliegdagen

Weersituatie op PMF:

Indoormeeting2016_DirkVL_039.jpg

Huidige weersituatie

Huidig weerbeeld in Kleine Brogel, Belgium
Huidige wind in Kleine Brogel, Belgium

Dit is het bericht voor Kleine Brogel, Belgium en werd 32 minuten geleden gemaakt.
De wind waaide met een snelheid van 1.0 meter per seconde (3.7 km/h) uit verschillende richtingen..
De temperatuur was 14 °C. De atmosferische druk was 1010 hPa. De relative luchtvochtigheid was 93.7%. Het algemene zicht was meer dan 10 kilometer. Momenteel lichte regen.

De onbewerkte METAR gegevens waarop dit bericht is gebaseerd zijn:
EBBL 240155Z AUTO VRB02KT 9999 -RA OVC067/// 14/13 Q1010 BLU


Opmerking:
De wind blijkt op PMF meestal iets krachtiger te waaien dan op Kleine Brogel. De windrichting klopt dan weer wel.




KMI

De weersvoorspellingen van het KMI vind je via deze link.


Buienradar

Op www.buienradar.nl kun je zelf zien waar het nu en de komende uren regent.